createdAt,value
2023-05-10T00:01:38.206Z,6.38
2023-05-10T00:04:05.515Z,6.10
2023-05-10T00:06:32.777Z,6.63
2023-05-10T00:08:59.845Z,6.38
2023-05-10T00:11:26.941Z,5.70
2023-05-10T00:13:54.114Z,6.32
2023-05-10T00:16:21.252Z,6.60
2023-05-10T00:18:48.370Z,6.57
2023-05-10T00:21:15.727Z,6.57
2023-05-10T00:23:42.756Z,6.70
2023-05-10T00:26:09.914Z,5.55
2023-05-10T00:28:38.698Z,6.07
2023-05-10T00:31:05.801Z,5.72
2023-05-10T00:33:33.148Z,5.68
2023-05-10T00:36:00.259Z,6.32
2023-05-10T00:38:27.371Z,4.75
2023-05-10T00:40:54.468Z,6.00
2023-05-10T00:43:27.765Z,5.93
2023-05-10T00:45:55.488Z,5.78
2023-05-10T00:48:23.475Z,5.28
2023-05-10T00:50:50.721Z,5.70
2023-05-10T00:53:19.131Z,5.35
2023-05-10T00:55:46.258Z,5.57
2023-05-10T00:58:15.008Z,5.22
2023-05-10T01:00:44.819Z,5.78
2023-05-10T01:03:12.678Z,6.40
2023-05-10T01:05:39.828Z,5.97
2023-05-10T01:08:07.525Z,5.43
2023-05-10T01:10:34.669Z,5.07
2023-05-10T01:13:04.272Z,5.15
2023-05-10T01:15:32.544Z,6.15
2023-05-10T01:18:00.788Z,5.85
2023-05-10T01:20:45.687Z,5.47
2023-05-10T01:23:16.015Z,5.53
2023-05-10T01:26:42.753Z,5.40
2023-05-10T01:29:25.967Z,5.70
2023-05-10T01:32:04.780Z,6.45
2023-05-10T01:34:40.942Z,5.95
2023-05-10T01:37:12.378Z,5.72
2023-05-10T01:39:39.497Z,5.88
2023-05-10T01:42:12.342Z,5.22
2023-05-10T01:44:45.347Z,5.68
2023-05-10T01:47:18.289Z,5.95
2023-05-10T01:49:51.628Z,6.32
2023-05-10T01:52:23.587Z,6.13
2023-05-10T01:54:56.830Z,5.43
2023-05-10T01:57:27.602Z,5.93
2023-05-10T01:59:56.104Z,5.32
2023-05-10T02:02:27.249Z,5.15
2023-05-10T02:04:56.566Z,5.55
2023-05-10T02:07:25.241Z,5.28
2023-05-10T02:09:52.896Z,5.90
2023-05-10T02:12:22.249Z,4.85
2023-05-10T02:14:53.980Z,4.70
2023-05-10T02:17:22.212Z,5.20
2023-05-10T02:19:52.593Z,4.70
2023-05-10T02:22:21.286Z,4.75
2023-05-10T02:24:49.850Z,4.75
2023-05-10T02:27:18.543Z,4.60
2023-05-10T02:29:46.025Z,4.47
2023-05-10T02:32:13.841Z,4.40
2023-05-10T02:34:42.169Z,4.50
2023-05-10T02:37:10.098Z,5.93
2023-05-10T02:39:37.891Z,4.80
2023-05-10T02:42:06.238Z,4.32
2023-05-10T02:44:35.268Z,4.22
2023-05-10T02:47:02.511Z,4.78
2023-05-10T02:49:30.259Z,4.15
2023-05-10T02:52:03.431Z,4.25
2023-05-10T02:54:34.696Z,4.20
2023-05-10T02:57:06.347Z,4.50
2023-05-10T02:59:33.882Z,4.45
2023-05-10T03:02:01.881Z,4.03
2023-05-10T03:04:29.149Z,4.60
2023-05-10T03:06:58.102Z,4.90
2023-05-10T03:09:25.953Z,5.10
2023-05-10T03:12:05.944Z,4.75
2023-05-10T03:15:12.811Z,4.35
2023-05-10T03:17:48.811Z,4.15
2023-05-10T03:20:27.057Z,4.50
2023-05-10T03:23:02.319Z,3.88
2023-05-10T03:25:32.288Z,4.22
2023-05-10T03:28:02.453Z,4.22
2023-05-10T03:30:31.581Z,4.18
2023-05-10T03:32:58.896Z,4.72
2023-05-10T03:35:26.616Z,4.90
2023-05-10T03:37:53.664Z,3.65
2023-05-10T03:40:21.479Z,4.13
2023-05-10T03:42:48.634Z,3.70
2023-05-10T03:45:16.199Z,4.32
2023-05-10T03:47:43.576Z,4.10
2023-05-10T03:50:11.498Z,3.28
2023-05-10T03:52:40.195Z,4.22
2023-05-10T03:55:07.841Z,3.50
2023-05-10T03:57:35.415Z,3.15
2023-05-10T04:00:03.517Z,3.83
2023-05-10T04:02:43.199Z,3.30
2023-05-10T04:05:17.747Z,3.42
2023-05-10T04:07:45.458Z,3.25
2023-05-10T04:10:12.789Z,3.35
2023-05-10T04:12:39.928Z,3.90
2023-05-10T04:15:07.883Z,3.65
2023-05-10T04:17:35.112Z,3.95
2023-05-10T04:20:02.296Z,4.00
2023-05-10T04:22:31.566Z,3.67
2023-05-10T04:24:58.633Z,3.60
2023-05-10T04:27:25.755Z,3.65
2023-05-10T04:29:52.861Z,3.20
2023-05-10T04:32:20.168Z,3.80
2023-05-10T04:34:47.951Z,5.25
2023-05-10T04:37:15.099Z,3.50
2023-05-10T04:39:42.509Z,3.65
2023-05-10T04:42:09.925Z,3.22
2023-05-10T04:44:37.435Z,4.05
2023-05-10T04:47:04.653Z,3.50
2023-05-10T04:49:31.698Z,3.50
2023-05-10T04:51:58.787Z,3.05
2023-05-10T04:54:26.067Z,3.30
2023-05-10T04:56:53.107Z,4.95
2023-05-10T04:59:20.197Z,3.10
2023-05-10T05:01:47.390Z,3.28
2023-05-10T05:04:15.657Z,3.25
2023-05-10T05:06:42.771Z,3.40
2023-05-10T05:09:11.199Z,3.05
2023-05-10T05:11:38.410Z,3.65
2023-05-10T05:14:05.528Z,3.20
2023-05-10T05:16:33.304Z,3.10
2023-05-10T05:19:01.801Z,3.35
2023-05-10T05:21:30.011Z,3.03
2023-05-10T05:23:57.080Z,3.03
2023-05-10T05:26:24.196Z,3.22
2023-05-10T05:28:54.892Z,3.10
2023-05-10T05:31:22.423Z,2.80
2023-05-10T05:33:49.590Z,2.67
2023-05-10T05:36:16.658Z,2.85
2023-05-10T05:38:44.187Z,2.20
2023-05-10T05:41:11.283Z,2.60
2023-05-10T05:43:46.008Z,2.40
2023-05-10T05:46:53.371Z,2.60
2023-05-10T05:54:55.160Z,2.15
2023-05-10T05:57:36.110Z,2.05
2023-05-10T06:00:04.203Z,2.63
2023-05-10T06:02:40.235Z,2.53
2023-05-10T06:05:08.033Z,2.50
2023-05-10T06:07:35.104Z,2.20
2023-05-10T06:10:02.401Z,2.50
2023-05-10T06:12:31.902Z,2.20
2023-05-10T06:14:59.075Z,1.80
2023-05-10T06:17:26.365Z,1.83
2023-05-10T06:19:53.535Z,1.83
2023-05-10T06:22:20.649Z,1.90
2023-05-10T06:24:47.669Z,2.63
2023-05-10T06:27:14.769Z,1.80
2023-05-10T06:29:41.824Z,2.35
2023-05-10T06:32:08.994Z,1.90
2023-05-10T06:34:36.053Z,2.33
2023-05-10T06:37:04.578Z,2.72
2023-05-10T06:39:31.570Z,2.28
2023-05-10T06:41:58.709Z,1.95
2023-05-10T06:44:32.744Z,1.85
2023-05-10T06:46:59.869Z,2.20
2023-05-10T06:49:26.959Z,2.28
2023-05-10T06:51:54.554Z,1.85
2023-05-10T06:54:21.643Z,2.33
2023-05-10T06:56:48.850Z,1.67
2023-05-10T06:59:17.618Z,2.15
2023-05-10T07:01:44.855Z,1.75
2023-05-10T07:04:11.990Z,2.30
2023-05-10T07:06:39.146Z,1.98
2023-05-10T07:09:06.304Z,2.10
2023-05-10T07:11:33.396Z,1.90
2023-05-10T07:14:00.777Z,1.92
2023-05-10T07:16:27.961Z,2.22
2023-05-10T07:18:55.032Z,2.30
2023-05-10T07:21:22.195Z,2.25
2023-05-10T07:23:49.348Z,2.00
2023-05-10T07:26:16.713Z,1.88
2023-05-10T07:28:43.773Z,2.13
2023-05-10T07:31:10.994Z,2.42
2023-05-10T07:33:38.190Z,1.83
2023-05-10T07:36:05.309Z,1.95
2023-05-10T07:38:32.368Z,3.08
2023-05-10T07:40:59.467Z,2.50
2023-05-10T07:43:26.509Z,2.13
2023-05-10T07:45:56.121Z,2.20
2023-05-10T07:48:23.517Z,1.95
2023-05-10T07:50:50.560Z,2.20
2023-05-10T07:53:17.918Z,1.63
2023-05-10T07:55:45.096Z,2.58
2023-05-10T07:58:12.343Z,1.67
2023-05-10T08:00:40.640Z,1.80
2023-05-10T08:03:07.876Z,1.70
2023-05-10T08:05:35.840Z,2.00
2023-05-10T08:08:03.101Z,2.15
2023-05-10T08:10:30.243Z,1.92
2023-05-10T08:12:57.395Z,2.10
2023-05-10T08:15:24.461Z,2.00
2023-05-10T08:17:52.168Z,2.10
2023-05-10T08:20:20.145Z,2.30
2023-05-10T08:22:49.939Z,1.70
2023-05-10T08:25:18.513Z,2.10
2023-05-10T08:27:46.722Z,1.90
2023-05-10T08:30:14.150Z,2.30
2023-05-10T08:32:41.462Z,1.80
2023-05-10T08:35:08.708Z,1.83
2023-05-10T08:37:35.868Z,1.90
2023-05-10T08:40:04.115Z,2.00
2023-05-10T08:42:35.269Z,1.85
2023-05-10T08:45:04.389Z,2.10
2023-05-10T08:47:33.582Z,2.45
2023-05-10T08:50:01.832Z,1.75
2023-05-10T08:52:32.569Z,1.90
2023-05-10T08:54:59.771Z,1.85
2023-05-10T08:57:27.241Z,1.55
2023-05-10T08:59:54.693Z,1.85
2023-05-10T09:02:22.846Z,1.90
2023-05-10T09:04:50.378Z,2.10
2023-05-10T09:07:18.219Z,1.83
2023-05-10T09:09:46.785Z,1.83
2023-05-10T09:12:16.643Z,1.70
2023-05-10T09:14:45.921Z,2.20
2023-05-10T09:17:13.320Z,1.90
2023-05-10T09:19:40.526Z,1.83
2023-05-10T09:22:07.976Z,1.73
2023-05-10T09:24:35.625Z,1.88
2023-05-10T09:27:02.890Z,2.05
2023-05-10T09:29:43.797Z,2.17
2023-05-10T09:32:10.816Z,2.10
2023-05-10T09:34:41.108Z,2.75
2023-05-10T09:37:09.265Z,2.33
2023-05-10T09:39:39.013Z,2.08
2023-05-10T09:42:08.881Z,1.90
2023-05-10T09:44:36.724Z,2.33
2023-05-10T09:47:04.150Z,1.90
2023-05-10T09:49:32.697Z,1.83
2023-05-10T09:52:06.394Z,1.80
2023-05-10T09:54:34.291Z,1.67
2023-05-10T09:57:02.099Z,1.60
2023-05-10T09:59:30.665Z,1.90
2023-05-10T10:02:00.710Z,2.00
2023-05-10T10:04:28.629Z,1.60
2023-05-10T10:07:06.071Z,2.00
2023-05-10T10:09:34.408Z,1.85
2023-05-10T10:12:02.426Z,1.60
2023-05-10T10:14:32.768Z,1.80
2023-05-10T10:17:08.094Z,1.85
2023-05-10T10:19:38.013Z,1.75
2023-05-10T10:22:06.579Z,1.88
2023-05-10T10:24:33.890Z,1.70
2023-05-10T10:27:10.381Z,1.75
2023-05-10T10:29:46.777Z,1.83
2023-05-10T10:32:30.175Z,2.00
2023-05-10T10:34:57.686Z,1.65
2023-05-10T10:37:42.276Z,1.73
2023-05-10T10:40:35.973Z,6.20
2023-05-10T10:43:28.476Z,2.00
2023-05-10T10:46:16.596Z,2.20
2023-05-10T10:48:52.715Z,1.80
2023-05-10T10:51:19.839Z,2.03
2023-05-10T10:53:49.272Z,1.95
2023-05-10T10:56:16.662Z,1.75
2023-05-10T10:58:54.814Z,1.67
2023-05-10T11:01:22.367Z,3.20
2023-05-10T11:04:01.815Z,2.00
2023-05-10T11:06:33.581Z,1.98
2023-05-10T11:09:07.762Z,1.90
2023-05-10T11:11:36.406Z,1.83
2023-05-10T11:14:08.197Z,2.05
2023-05-10T11:16:46.093Z,1.85
2023-05-10T11:19:17.622Z,2.30
2023-05-10T11:21:51.438Z,2.17
2023-05-10T11:24:24.053Z,2.00
2023-05-10T11:26:55.035Z,2.10
2023-05-10T11:29:22.293Z,1.98
2023-05-10T11:31:50.926Z,1.80
2023-05-10T11:34:28.973Z,2.00
2023-05-10T11:36:56.820Z,1.80
2023-05-10T11:39:28.936Z,1.90
2023-05-10T11:41:56.345Z,2.15
2023-05-10T11:44:23.771Z,2.20
2023-05-10T11:46:51.054Z,2.22
2023-05-10T11:49:19.052Z,1.92
2023-05-10T11:51:46.923Z,2.40
2023-05-10T11:54:14.729Z,1.80
2023-05-10T11:56:42.439Z,1.63
2023-05-10T11:59:09.615Z,2.10
2023-05-10T12:01:37.537Z,1.90
2023-05-10T12:04:04.926Z,1.80
2023-05-10T12:06:35.012Z,1.52
2023-05-10T12:09:07.396Z,1.95
2023-05-10T12:11:40.161Z,2.38
2023-05-10T12:14:10.184Z,2.00
2023-05-10T12:16:37.452Z,2.30
2023-05-10T12:19:04.870Z,2.75
2023-05-10T12:21:32.486Z,2.30
2023-05-10T12:24:04.863Z,2.70
2023-05-10T12:26:32.584Z,2.50
2023-05-10T12:29:20.121Z,2.60
2023-05-10T12:32:01.216Z,3.00
2023-05-10T12:34:33.226Z,3.50
2023-05-10T12:37:01.014Z,1.83
2023-05-10T12:39:40.109Z,2.20
2023-05-10T12:42:07.465Z,2.08
2023-05-10T12:44:34.688Z,2.42
2023-05-10T12:47:01.810Z,2.40
2023-05-10T12:49:29.197Z,2.53
2023-05-10T12:51:56.243Z,2.03
2023-05-10T12:54:23.301Z,1.85
2023-05-10T12:56:50.386Z,1.90
2023-05-10T12:59:17.499Z,1.90
2023-05-10T13:01:44.658Z,2.10
2023-05-10T13:04:11.842Z,1.92
2023-05-10T13:06:38.932Z,1.90
2023-05-10T13:09:06.006Z,1.88
2023-05-10T13:11:33.143Z,1.92
2023-05-10T13:14:00.345Z,2.00
2023-05-10T13:16:27.915Z,1.80
2023-05-10T13:18:55.041Z,1.90
2023-05-10T13:21:22.191Z,1.70
2023-05-10T13:23:49.257Z,1.70
2023-05-10T13:26:16.357Z,1.80
2023-05-10T13:28:43.442Z,1.85
2023-05-10T13:31:10.479Z,1.88
2023-05-10T13:33:37.539Z,1.70
2023-05-10T13:36:04.902Z,2.15
2023-05-10T13:38:31.985Z,2.00
2023-05-10T13:40:59.045Z,2.10
2023-05-10T13:43:26.152Z,1.77
2023-05-10T13:45:53.502Z,2.13
2023-05-10T13:48:20.743Z,2.28
2023-05-10T13:50:48.264Z,1.98
2023-05-10T13:53:15.617Z,3.58
2023-05-10T13:55:42.968Z,4.47
2023-05-10T13:58:09.984Z,3.67
2023-05-10T14:00:37.112Z,2.85
2023-05-10T14:03:06.039Z,2.40
2023-05-10T14:05:33.303Z,2.47
2023-05-10T14:08:00.410Z,2.78
2023-05-10T14:10:27.555Z,2.05
2023-05-10T14:12:54.620Z,2.30
2023-05-10T14:15:21.758Z,3.35
2023-05-10T14:17:49.144Z,3.05
2023-05-10T14:20:16.369Z,3.60
2023-05-10T14:22:43.446Z,3.25
2023-05-10T14:25:10.836Z,3.63
2023-05-10T14:27:38.172Z,2.97
2023-05-10T14:30:05.848Z,2.90
2023-05-10T14:32:33.379Z,3.03
2023-05-10T14:35:00.836Z,2.30
2023-05-10T14:37:27.933Z,2.70
2023-05-10T14:39:55.187Z,2.60
2023-05-10T14:42:22.532Z,3.10
2023-05-10T14:44:49.753Z,2.92
2023-05-10T14:47:16.966Z,3.38
2023-05-10T14:49:44.081Z,2.13
2023-05-10T14:52:13.244Z,2.00
2023-05-10T14:59:34.891Z,2.40
2023-05-10T15:02:03.816Z,2.60
2023-05-10T15:04:31.408Z,2.20
2023-05-10T15:07:00.359Z,2.15
2023-05-10T15:09:28.854Z,1.92
2023-05-10T15:11:56.650Z,2.10
2023-05-10T15:14:24.233Z,2.33
2023-05-10T15:16:51.388Z,1.85
2023-05-10T15:19:18.552Z,1.92
2023-05-10T15:21:46.153Z,2.22
2023-05-10T15:24:13.343Z,2.13
2023-05-10T15:26:40.456Z,2.30
2023-05-10T15:29:07.591Z,2.30
2023-05-10T15:31:37.573Z,2.05
2023-05-10T15:34:04.920Z,2.05
2023-05-10T15:36:33.286Z,2.30
2023-05-10T15:39:00.601Z,4.03
2023-05-10T15:41:27.934Z,2.13
2023-05-10T15:43:55.260Z,2.55
2023-05-10T15:46:22.764Z,2.22
2023-05-10T15:48:50.011Z,2.83
2023-05-10T15:51:17.140Z,2.60
2023-05-10T15:53:53.112Z,2.42
2023-05-10T15:56:31.403Z,3.20
2023-05-10T15:58:58.480Z,3.35
2023-05-10T16:01:26.460Z,3.60
2023-05-10T16:03:53.647Z,3.45
2023-05-10T16:06:20.834Z,3.83
2023-05-10T16:08:47.898Z,2.90
2023-05-10T16:11:14.981Z,3.63
2023-05-10T16:13:42.086Z,3.60
2023-05-10T16:16:09.416Z,4.22
2023-05-10T16:18:36.912Z,4.00
2023-05-10T16:21:04.425Z,3.50
2023-05-10T16:23:31.675Z,3.80
2023-05-10T16:25:58.846Z,3.83
2023-05-10T16:28:26.077Z,3.67
2023-05-10T16:30:53.319Z,3.70
2023-05-10T16:33:20.864Z,4.90
2023-05-10T16:35:47.966Z,5.90
2023-05-10T16:38:15.176Z,5.43
2023-05-10T16:40:42.259Z,4.80
2023-05-10T16:43:09.299Z,5.30
2023-05-10T16:45:36.513Z,5.32
2023-05-10T16:48:03.984Z,5.10
2023-05-10T16:50:31.474Z,5.95
2023-05-10T16:52:58.713Z,6.03
2023-05-10T16:55:26.466Z,6.00
2023-05-10T16:57:59.748Z,8.20
2023-05-10T17:00:27.673Z,7.70
2023-05-10T17:02:55.194Z,9.93
2023-05-10T17:05:22.941Z,9.18
2023-05-10T17:07:50.651Z,8.00
2023-05-10T17:10:18.117Z,8.15
2023-05-10T17:12:45.950Z,8.88
2023-05-10T17:15:13.340Z,8.13
2023-05-10T17:17:40.693Z,6.25
2023-05-10T17:20:08.604Z,6.50
2023-05-10T17:22:36.037Z,6.35
2023-05-10T17:25:04.337Z,6.90
2023-05-10T17:27:32.226Z,6.40
2023-05-10T17:29:59.786Z,7.88
2023-05-10T17:32:27.221Z,7.78
2023-05-10T17:34:54.492Z,7.13
2023-05-10T17:37:21.719Z,8.57
2023-05-10T17:39:48.938Z,8.90
2023-05-10T17:42:19.033Z,8.68
2023-05-10T17:44:46.076Z,8.55
2023-05-10T17:47:13.193Z,9.02
2023-05-10T17:49:40.896Z,8.48
2023-05-10T17:52:08.213Z,10.23
2023-05-10T17:54:35.505Z,9.70
2023-05-10T17:57:03.741Z,8.02
2023-05-10T17:59:30.945Z,7.70
2023-05-10T18:01:58.092Z,7.60
2023-05-10T18:04:26.208Z,6.93
2023-05-10T18:07:01.191Z,7.25
2023-05-10T18:09:29.245Z,7.07
2023-05-10T18:11:56.572Z,6.03
2023-05-10T18:14:38.962Z,6.18
2023-05-10T18:17:07.933Z,6.07
2023-05-10T18:19:35.275Z,5.40
2023-05-10T18:22:02.360Z,6.30
2023-05-10T18:27:00.368Z,6.28
2023-05-10T18:29:27.431Z,7.05
2023-05-10T18:31:54.565Z,5.60
2023-05-10T18:34:21.707Z,22.33
2023-05-10T18:36:48.800Z,7.47
2023-05-10T18:39:18.087Z,5.28
2023-05-10T18:44:12.889Z,4.97
2023-05-10T18:46:40.021Z,5.32
2023-05-10T18:49:08.566Z,5.25
2023-05-10T18:51:35.599Z,5.45
2023-05-10T18:54:02.724Z,6.40
2023-05-10T18:56:29.936Z,5.90
2023-05-10T18:58:57.115Z,6.80
2023-05-10T19:01:24.201Z,5.95
2023-05-10T19:03:51.301Z,6.32
2023-05-10T19:06:18.413Z,5.35
2023-05-10T19:08:45.723Z,6.32
2023-05-10T19:11:12.886Z,6.38
2023-05-10T19:13:39.994Z,6.47
2023-05-10T19:16:13.900Z,5.97
2023-05-10T19:18:41.185Z,6.72
2023-05-10T19:21:10.883Z,6.45
2023-05-10T19:23:40.398Z,6.35
2023-05-10T19:26:09.217Z,7.18
2023-05-10T19:28:37.050Z,6.82
2023-05-10T19:31:04.309Z,7.25
2023-05-10T19:33:31.747Z,7.55
2023-05-10T19:35:58.871Z,7.57
2023-05-10T19:38:26.342Z,6.60
2023-05-10T19:40:59.577Z,7.10
2023-05-10T19:43:34.219Z,5.90
2023-05-10T19:46:02.736Z,6.80
2023-05-10T19:48:30.612Z,6.97
2023-05-10T19:51:03.353Z,6.72
2023-05-10T19:53:30.680Z,7.47
2023-05-10T19:56:03.350Z,7.47
2023-05-10T19:58:30.526Z,8.10
2023-05-10T20:00:57.790Z,7.43
2023-05-10T20:03:25.072Z,7.05
2023-05-10T20:05:52.472Z,6.35
2023-05-10T20:08:19.534Z,7.30
2023-05-10T20:10:46.892Z,6.97
2023-05-10T20:13:14.256Z,6.95
2023-05-10T20:15:41.346Z,7.57
2023-05-10T20:18:08.431Z,7.28
2023-05-10T20:20:35.549Z,6.47
2023-05-10T20:23:02.608Z,7.70
2023-05-10T20:25:29.740Z,7.53
2023-05-10T20:27:56.943Z,7.40
2023-05-10T20:30:24.178Z,8.23
2023-05-10T20:32:52.006Z,8.18
2023-05-10T20:35:19.149Z,7.07
2023-05-10T20:37:48.440Z,7.70
2023-05-10T20:42:42.922Z,9.20
2023-05-10T20:45:11.453Z,8.05
2023-05-10T20:47:38.617Z,7.47
2023-05-10T20:50:06.436Z,7.53
2023-05-10T20:52:33.650Z,6.60
2023-05-10T20:55:00.703Z,8.25
2023-05-10T20:57:27.745Z,6.80
2023-05-10T20:59:54.909Z,7.88
2023-05-10T21:02:22.012Z,6.35
2023-05-10T21:04:49.220Z,6.18
2023-05-10T21:07:16.950Z,6.38
2023-05-10T21:09:44.341Z,6.28
2023-05-10T21:12:11.556Z,6.90
2023-05-10T21:14:38.659Z,6.60
2023-05-10T21:17:05.802Z,7.38
2023-05-10T21:19:33.093Z,8.68
2023-05-10T21:22:02.081Z,7.10
2023-05-10T21:24:29.209Z,7.60
2023-05-10T21:26:56.453Z,6.35
2023-05-10T21:29:23.487Z,7.13
2023-05-10T21:31:50.671Z,6.25
2023-05-10T21:34:18.110Z,6.68
2023-05-10T21:36:45.280Z,6.50
2023-05-10T21:39:12.429Z,6.85
2023-05-10T21:41:39.693Z,6.75
2023-05-10T21:44:06.771Z,7.28
2023-05-10T21:46:33.879Z,6.05
2023-05-10T21:49:00.916Z,8.25
2023-05-10T21:51:29.356Z,7.63
2023-05-10T21:53:56.469Z,7.18
2023-05-10T21:56:23.633Z,7.65
2023-05-10T21:58:50.892Z,7.85
2023-05-10T22:01:18.175Z,8.27
2023-05-10T22:03:45.434Z,8.13
2023-05-10T22:06:12.658Z,7.68
2023-05-10T22:08:39.761Z,7.82
2023-05-10T22:11:06.880Z,8.10
2023-05-10T22:13:33.987Z,7.57
2023-05-10T22:16:01.099Z,7.90
2023-05-10T22:18:28.431Z,6.85
2023-05-10T22:20:55.613Z,7.30
2023-05-10T22:23:22.983Z,7.65
2023-05-10T22:25:50.006Z,7.55
2023-05-10T22:28:17.105Z,8.25
2023-05-10T22:30:44.532Z,7.10
2023-05-10T22:33:11.575Z,6.47
2023-05-10T22:35:38.629Z,7.95
2023-05-10T22:38:05.732Z,6.85
2023-05-10T22:40:32.840Z,6.72
2023-05-10T22:43:00.016Z,7.22
2023-05-10T22:45:27.351Z,7.25
2023-05-10T22:47:54.687Z,6.68
2023-05-10T22:50:21.878Z,7.78
2023-05-10T22:52:48.937Z,7.63
2023-05-10T22:55:16.078Z,6.80
2023-05-10T22:57:43.427Z,6.97
2023-05-10T23:00:11.395Z,6.90
2023-05-10T23:02:38.515Z,7.05
2023-05-10T23:05:07.191Z,6.78
2023-05-10T23:07:34.573Z,6.07
2023-05-10T23:10:02.285Z,7.00
2023-05-10T23:12:32.731Z,6.63
2023-05-10T23:15:00.164Z,6.53
2023-05-10T23:17:27.545Z,6.20
2023-05-10T23:19:54.694Z,5.97
2023-05-10T23:22:21.968Z,6.75
2023-05-10T23:24:49.086Z,6.70
2023-05-10T23:27:16.251Z,5.90
2023-05-10T23:29:43.379Z,6.82
2023-05-10T23:32:10.494Z,7.03
2023-05-10T23:34:37.622Z,6.72
2023-05-10T23:37:04.681Z,7.47
2023-05-10T23:39:32.015Z,6.28
2023-05-10T23:41:59.085Z,6.82
2023-05-10T23:44:26.179Z,6.82
2023-05-10T23:46:53.338Z,7.07
2023-05-10T23:49:20.394Z,7.28
2023-05-10T23:51:47.452Z,6.90
2023-05-10T23:54:14.507Z,6.93
2023-05-10T23:56:41.617Z,6.75
2023-05-10T23:59:08.771Z,5.63
